createdAt,value
2022-09-14T00:01:08.304Z,4.80
2022-09-14T00:02:12.877Z,4.50
2022-09-14T00:03:17.413Z,5.30
2022-09-14T00:04:19.956Z,4.90
2022-09-14T00:05:21.666Z,5.00
2022-09-14T00:06:24.040Z,4.90
2022-09-14T00:07:27.277Z,5.00
2022-09-14T00:08:29.926Z,4.90
2022-09-14T00:09:31.584Z,5.00
2022-09-14T00:10:33.487Z,4.60
2022-09-14T00:11:36.803Z,4.70
2022-09-14T00:12:38.328Z,4.80
2022-09-14T00:13:42.228Z,4.50
2022-09-14T00:14:43.938Z,5.60
2022-09-14T00:15:45.693Z,4.80
2022-09-14T00:16:48.923Z,5.40
2022-09-14T00:17:50.790Z,5.50
2022-09-14T00:18:54.403Z,5.20
2022-09-14T00:19:56.051Z,5.70
2022-09-14T00:21:03.258Z,5.00
2022-09-14T00:22:08.427Z,5.40
2022-09-14T00:23:10.042Z,5.50
2022-09-14T00:24:11.648Z,5.50
2022-09-14T00:25:13.286Z,5.20
2022-09-14T00:26:18.515Z,5.10
2022-09-14T00:27:20.115Z,5.60
2022-09-14T00:28:21.940Z,5.50
2022-09-14T00:29:23.704Z,4.90
2022-09-14T00:30:25.545Z,5.10
2022-09-14T00:31:27.307Z,4.90
2022-09-14T00:32:29.575Z,5.30
2022-09-14T00:33:31.646Z,5.30
2022-09-14T00:34:34.428Z,5.50
2022-09-14T00:35:36.195Z,5.00
2022-09-14T00:36:41.426Z,5.20
2022-09-14T00:37:43.125Z,5.60
2022-09-14T00:38:46.419Z,5.20
2022-09-14T00:39:48.211Z,4.80
2022-09-14T00:40:58.181Z,4.80
2022-09-14T00:41:59.773Z,4.90
2022-09-14T00:43:01.784Z,4.60
2022-09-14T00:44:26.336Z,4.60
2022-09-14T00:45:28.145Z,4.80
2022-09-14T00:46:32.247Z,4.90
2022-09-14T00:47:34.352Z,5.10
2022-09-14T00:48:36.046Z,5.00
2022-09-14T00:49:40.237Z,5.00
2022-09-14T00:50:42.085Z,4.70
2022-09-14T00:51:52.637Z,5.20
2022-09-14T00:53:11.676Z,4.70
2022-09-14T00:54:13.637Z,4.40
2022-09-14T00:55:19.809Z,4.80
2022-09-14T00:56:21.560Z,5.00
2022-09-14T00:57:25.257Z,4.70
2022-09-14T00:58:27.110Z,4.20
2022-09-14T00:59:30.763Z,4.80
2022-09-14T01:00:32.346Z,5.00
2022-09-14T01:01:34.081Z,4.50
2022-09-14T01:02:37.419Z,4.50
2022-09-14T01:03:39.165Z,3.80
2022-09-14T01:04:42.288Z,4.00
2022-09-14T01:06:27.045Z,4.00
2022-09-14T01:07:55.973Z,4.30
2022-09-14T01:09:15.922Z,4.30
2022-09-14T01:10:48.867Z,4.40
2022-09-14T01:11:59.170Z,4.20
2022-09-14T01:13:19.648Z,4.60
2022-09-14T01:14:36.296Z,4.40
2022-09-14T01:15:43.846Z,4.30
2022-09-14T01:16:54.805Z,4.60
2022-09-14T01:18:23.180Z,4.40
2022-09-14T01:19:43.625Z,4.20
2022-09-14T01:21:07.189Z,4.60
2022-09-14T01:22:14.443Z,4.30
2022-09-14T01:23:32.482Z,4.60
2022-09-14T01:24:45.287Z,4.40
2022-09-14T01:26:14.476Z,4.50
2022-09-14T01:27:41.115Z,4.40
2022-09-14T01:29:07.466Z,4.60
2022-09-14T01:30:12.437Z,4.90
2022-09-14T01:31:43.014Z,4.90
2022-09-14T01:32:49.028Z,4.60
2022-09-14T01:34:04.904Z,4.60
2022-09-14T01:35:35.469Z,4.00
2022-09-14T01:36:40.951Z,4.10
2022-09-14T01:37:48.497Z,4.20
2022-09-14T01:38:52.776Z,4.30
2022-09-14T01:40:14.361Z,4.30
2022-09-14T01:41:23.498Z,4.30
2022-09-14T01:42:27.920Z,4.00
2022-09-14T01:43:46.205Z,4.70
2022-09-14T01:44:55.029Z,4.50
2022-09-14T01:46:04.109Z,4.20
2022-09-14T01:47:38.249Z,4.60
2022-09-14T01:48:48.397Z,4.30
2022-09-14T01:49:55.125Z,4.60
2022-09-14T01:50:59.770Z,4.50
2022-09-14T01:52:08.542Z,4.80
2022-09-14T01:53:10.260Z,4.60
2022-09-14T01:54:27.380Z,4.50
2022-09-14T01:55:36.410Z,4.50
2022-09-14T01:56:47.317Z,4.60
2022-09-14T01:58:05.347Z,4.80
2022-09-14T01:59:27.260Z,3.90
2022-09-14T02:00:30.451Z,4.10
2022-09-14T02:01:39.610Z,4.20
2022-09-14T02:02:52.073Z,4.10
2022-09-14T02:04:00.358Z,4.20
2022-09-14T02:05:30.795Z,4.30
2022-09-14T02:06:38.290Z,3.90
2022-09-14T02:07:40.466Z,4.10
2022-09-14T02:08:42.365Z,4.50
2022-09-14T02:09:45.485Z,4.30
2022-09-14T02:10:47.140Z,4.20
2022-09-14T02:11:49.166Z,4.50
2022-09-14T02:12:52.800Z,4.70
2022-09-14T02:13:54.833Z,4.40
2022-09-14T02:15:06.202Z,4.50
2022-09-14T02:16:23.829Z,4.50
2022-09-14T02:17:25.682Z,4.40
2022-09-14T02:18:27.769Z,4.40
2022-09-14T02:19:35.051Z,4.40
2022-09-14T02:20:51.070Z,4.30
2022-09-14T02:21:53.100Z,4.20
2022-09-14T02:22:55.221Z,4.10
2022-09-14T02:24:00.718Z,4.10
2022-09-14T02:25:02.955Z,4.20
2022-09-14T02:26:05.101Z,4.50
2022-09-14T02:27:07.334Z,4.60
2022-09-14T02:28:09.279Z,4.60
2022-09-14T02:29:10.947Z,4.30
2022-09-14T02:30:13.155Z,4.70
2022-09-14T02:31:15.381Z,4.40
2022-09-14T02:32:35.423Z,4.80
2022-09-14T02:34:04.292Z,4.90
2022-09-14T02:35:22.248Z,5.10
2022-09-14T02:36:51.688Z,4.90
2022-09-14T02:38:04.395Z,5.10
2022-09-14T02:39:37.756Z,5.20
2022-09-14T02:40:53.034Z,4.90
2022-09-14T02:42:05.149Z,4.40
2022-09-14T02:43:34.270Z,4.20
2022-09-14T02:44:58.981Z,4.70
2022-09-14T02:46:31.496Z,4.50
2022-09-14T02:47:56.689Z,4.50
2022-09-14T02:49:10.387Z,4.40
2022-09-14T02:50:30.579Z,4.60
2022-09-14T02:51:43.500Z,4.50
2022-09-14T02:52:56.920Z,4.50
2022-09-14T02:54:08.767Z,4.30
2022-09-14T02:55:14.406Z,4.40
2022-09-14T02:56:18.294Z,4.60
2022-09-14T02:57:19.900Z,4.50
2022-09-14T02:58:21.527Z,4.80
2022-09-14T02:59:23.219Z,4.30
2022-09-14T03:00:25.049Z,4.50
2022-09-14T03:01:27.545Z,4.30
2022-09-14T03:02:29.330Z,4.80
2022-09-14T03:03:35.667Z,4.80
2022-09-14T03:04:37.799Z,5.50
2022-09-14T03:05:40.071Z,5.20
2022-09-14T03:06:41.632Z,5.00
2022-09-14T03:07:43.230Z,4.40
2022-09-14T03:08:45.000Z,4.80
2022-09-14T03:09:49.455Z,4.70
2022-09-14T03:10:51.065Z,4.90
2022-09-14T03:11:52.717Z,4.80
2022-09-14T03:12:54.387Z,4.70
2022-09-14T03:13:56.145Z,4.90
2022-09-14T03:14:57.819Z,4.90
2022-09-14T03:16:05.074Z,4.90
2022-09-14T03:17:06.842Z,4.90
2022-09-14T03:18:13.637Z,5.00
2022-09-14T03:19:17.110Z,5.00
2022-09-14T03:20:22.248Z,4.90
2022-09-14T03:21:23.953Z,4.80
2022-09-14T03:22:25.605Z,4.80
2022-09-14T03:23:30.426Z,5.20
2022-09-14T03:24:32.090Z,4.90
2022-09-14T03:25:38.347Z,4.90
2022-09-14T03:26:40.438Z,4.90
2022-09-14T03:27:42.165Z,5.10
2022-09-14T03:28:44.681Z,4.80
2022-09-14T03:29:46.402Z,4.80
2022-09-14T03:30:48.309Z,4.80
2022-09-14T03:31:49.947Z,4.80
2022-09-14T03:32:52.344Z,4.90
2022-09-14T03:34:00.068Z,4.90
2022-09-14T03:35:01.783Z,4.80
2022-09-14T03:36:12.094Z,4.80
2022-09-14T03:37:14.665Z,5.00
2022-09-14T03:38:16.442Z,4.50
2022-09-14T03:39:18.084Z,4.60
2022-09-14T03:40:22.105Z,4.50
2022-09-14T03:41:27.226Z,4.70
2022-09-14T03:42:29.245Z,4.40
2022-09-14T03:43:31.011Z,4.70
2022-09-14T03:44:32.609Z,4.70
2022-09-14T03:45:36.414Z,4.90
2022-09-14T03:46:38.648Z,5.00
2022-09-14T03:47:40.791Z,4.70
2022-09-14T03:48:42.920Z,4.80
2022-09-14T03:49:44.591Z,4.60
2022-09-14T03:50:46.124Z,4.70
2022-09-14T03:51:50.329Z,4.70
2022-09-14T03:52:52.363Z,4.40
2022-09-14T03:53:53.955Z,4.70
2022-09-14T03:54:55.621Z,4.00
2022-09-14T03:55:59.243Z,4.30
2022-09-14T03:57:00.863Z,3.70
2022-09-14T03:58:02.785Z,4.10
2022-09-14T03:59:04.430Z,4.10
2022-09-14T04:00:07.275Z,4.30
2022-09-14T04:01:14.410Z,4.20
2022-09-14T04:02:16.371Z,4.30
2022-09-14T04:03:18.741Z,4.10
2022-09-14T04:04:20.549Z,4.30
2022-09-14T04:05:22.465Z,4.40
2022-09-14T04:06:25.561Z,4.10
2022-09-14T04:07:27.525Z,4.40
2022-09-14T04:08:29.275Z,4.00
2022-09-14T04:09:34.051Z,4.40
2022-09-14T04:10:35.621Z,4.20
2022-09-14T04:11:37.182Z,4.10
2022-09-14T04:12:39.572Z,4.30
2022-09-14T04:13:42.513Z,4.20
2022-09-14T04:14:44.062Z,4.20
2022-09-14T04:15:56.049Z,4.10
2022-09-14T04:16:57.879Z,4.20
2022-09-14T04:18:02.386Z,4.00
2022-09-14T04:19:04.634Z,4.20
2022-09-14T04:20:07.217Z,4.50
2022-09-14T04:21:18.211Z,4.10
2022-09-14T04:22:19.941Z,4.00
2022-09-14T04:23:22.390Z,4.60
2022-09-14T04:24:27.947Z,4.20
2022-09-14T04:25:31.818Z,4.00
2022-09-14T04:26:34.261Z,4.50
2022-09-14T04:27:35.870Z,4.30
2022-09-14T04:28:40.640Z,4.50
2022-09-14T04:29:42.395Z,4.30
2022-09-14T04:30:44.210Z,4.80
2022-09-14T04:31:46.236Z,4.30
2022-09-14T04:32:48.060Z,4.40
2022-09-14T04:33:50.870Z,4.50
2022-09-14T04:34:52.622Z,4.30
2022-09-14T04:36:03.185Z,4.20
2022-09-14T04:37:04.858Z,4.40
2022-09-14T04:38:06.875Z,3.90
2022-09-14T04:39:11.442Z,4.20
2022-09-14T04:40:14.632Z,4.00
2022-09-14T04:41:19.906Z,4.10
2022-09-14T04:42:21.511Z,3.80
2022-09-14T04:43:24.455Z,4.00
2022-09-14T04:44:27.278Z,3.70
2022-09-14T04:45:30.153Z,3.60
2022-09-14T04:46:43.464Z,4.00
2022-09-14T04:47:47.876Z,3.70
2022-09-14T04:48:50.515Z,4.00
2022-09-14T04:49:52.203Z,4.00
2022-09-14T04:50:54.172Z,3.70
2022-09-14T04:51:55.766Z,3.90
2022-09-14T04:52:57.463Z,3.90
2022-09-14T04:54:00.853Z,3.30
2022-09-14T04:55:02.631Z,3.60
2022-09-14T04:56:07.760Z,3.70
2022-09-14T04:57:09.441Z,3.60
2022-09-14T04:58:11.137Z,3.00
2022-09-14T04:59:15.066Z,3.20
2022-09-14T05:00:16.790Z,3.20
2022-09-14T05:01:21.414Z,3.50
2022-09-14T05:02:23.292Z,3.40
2022-09-14T05:03:25.142Z,3.30
2022-09-14T05:04:26.883Z,3.70
2022-09-14T05:05:28.517Z,3.60
2022-09-14T05:06:33.232Z,3.50
2022-09-14T05:07:34.795Z,3.00
2022-09-14T05:08:38.191Z,3.10
2022-09-14T05:09:39.903Z,3.40
2022-09-14T05:10:41.568Z,3.20
2022-09-14T05:11:44.196Z,3.20
2022-09-14T05:12:46.275Z,3.40
2022-09-14T05:13:50.157Z,2.90
2022-09-14T05:14:52.604Z,3.10
2022-09-14T05:15:55.350Z,3.00
2022-09-14T05:17:00.691Z,2.80
2022-09-14T05:18:05.184Z,3.10
2022-09-14T05:19:10.511Z,3.10
2022-09-14T05:20:12.291Z,3.30
2022-09-14T05:21:16.790Z,3.00
2022-09-14T05:22:22.257Z,2.90
2022-09-14T05:23:24.104Z,3.00
2022-09-14T05:24:26.035Z,3.20
2022-09-14T05:25:28.001Z,3.00
2022-09-14T05:26:31.603Z,3.40
2022-09-14T05:27:33.351Z,3.80
2022-09-14T05:28:35.753Z,3.70
2022-09-14T05:29:39.914Z,3.90
2022-09-14T05:30:41.570Z,3.40
2022-09-14T05:31:44.136Z,3.80
2022-09-14T05:32:46.566Z,4.10
2022-09-14T05:33:49.040Z,3.70
2022-09-14T05:34:50.706Z,4.00
2022-09-14T05:35:52.363Z,3.90
2022-09-14T05:36:53.979Z,4.00
2022-09-14T05:37:56.221Z,4.00
2022-09-14T05:38:57.914Z,3.80
2022-09-14T05:39:59.630Z,3.70
2022-09-14T05:41:01.945Z,3.80
2022-09-14T05:42:03.691Z,3.70
2022-09-14T05:43:05.566Z,3.60
2022-09-14T05:44:07.279Z,3.80
2022-09-14T05:45:09.381Z,3.60
2022-09-14T05:46:19.582Z,3.20
2022-09-14T05:47:21.183Z,3.80
2022-09-14T05:48:22.787Z,3.60
2022-09-14T05:49:24.897Z,3.30
2022-09-14T05:50:26.464Z,3.70
2022-09-14T05:51:28.995Z,3.50
2022-09-14T05:52:30.740Z,3.60
2022-09-14T05:53:33.284Z,3.60
2022-09-14T05:54:34.896Z,3.70
2022-09-14T05:55:36.555Z,3.50
2022-09-14T05:56:38.203Z,3.60
2022-09-14T05:57:40.116Z,3.40
2022-09-14T05:58:42.845Z,3.40
2022-09-14T05:59:46.863Z,3.60
2022-09-14T06:00:51.479Z,3.60
2022-09-14T06:01:59.092Z,4.00
2022-09-14T06:03:00.699Z,3.70
2022-09-14T06:04:03.201Z,3.50
2022-09-14T06:05:05.397Z,3.50
2022-09-14T06:06:09.044Z,3.50
2022-09-14T06:07:18.533Z,3.20
2022-09-14T06:08:23.218Z,3.40
2022-09-14T06:09:24.817Z,3.50
2022-09-14T06:10:26.429Z,3.40
2022-09-14T06:11:30.560Z,3.70
2022-09-14T06:12:32.240Z,3.30
2022-09-14T06:13:34.445Z,3.30
2022-09-14T06:14:36.163Z,3.50
2022-09-14T06:15:40.429Z,3.60
2022-09-14T06:16:42.101Z,3.20
2022-09-14T06:17:43.666Z,3.40
2022-09-14T06:18:46.418Z,3.60
2022-09-14T06:19:48.125Z,3.50
2022-09-14T06:20:51.620Z,3.60
2022-09-14T06:21:55.732Z,3.50
2022-09-14T06:22:57.370Z,3.70
2022-09-14T06:23:59.528Z,3.50
2022-09-14T06:25:01.340Z,3.50
2022-09-14T06:26:04.767Z,3.90
2022-09-14T06:27:08.546Z,3.70
2022-09-14T06:28:10.174Z,3.50
2022-09-14T06:29:11.779Z,3.70
2022-09-14T06:30:13.467Z,3.60
2022-09-14T06:31:21.847Z,3.50
2022-09-14T06:32:26.790Z,2.90
2022-09-14T06:33:28.831Z,3.00
2022-09-14T06:34:30.398Z,2.90
2022-09-14T06:35:32.015Z,2.90
2022-09-14T06:36:35.651Z,2.80
2022-09-14T06:37:37.312Z,3.00
2022-09-14T06:38:41.481Z,2.60
2022-09-14T06:39:43.655Z,2.70
2022-09-14T06:40:59.058Z,2.70
2022-09-14T06:42:03.494Z,2.90
2022-09-14T06:43:05.231Z,2.60
2022-09-14T06:44:06.915Z,8.80
2022-09-14T06:45:09.025Z,5.00
2022-09-14T06:46:21.171Z,3.30
2022-09-14T06:47:23.391Z,2.90
2022-09-14T06:48:26.790Z,2.80
2022-09-14T06:49:31.593Z,3.00
2022-09-14T06:50:33.236Z,3.10
2022-09-14T06:51:37.874Z,2.90
2022-09-14T06:52:39.725Z,2.90
2022-09-14T06:53:41.853Z,2.90
2022-09-14T06:54:43.509Z,3.00
2022-09-14T06:55:45.367Z,2.80
2022-09-14T06:56:47.136Z,2.30
2022-09-14T06:57:51.160Z,2.60
2022-09-14T06:58:53.302Z,2.60
2022-09-14T06:59:54.915Z,3.00
2022-09-14T07:01:01.400Z,2.40
2022-09-14T07:02:03.035Z,2.70
2022-09-14T07:03:04.800Z,3.00
2022-09-14T07:04:07.470Z,2.50
2022-09-14T07:05:09.526Z,2.60
2022-09-14T07:06:13.845Z,2.50
2022-09-14T07:07:16.026Z,2.80
2022-09-14T07:08:17.655Z,2.40
2022-09-14T07:09:19.807Z,2.40
2022-09-14T07:10:21.679Z,2.40
2022-09-14T07:11:26.069Z,2.70
2022-09-14T07:12:27.916Z,2.80
2022-09-14T07:13:31.055Z,3.10
2022-09-14T07:14:36.269Z,2.90
2022-09-14T07:15:38.014Z,2.90
2022-09-14T07:16:40.597Z,3.00
2022-09-14T07:17:44.911Z,3.10
2022-09-14T07:18:47.022Z,3.20
2022-09-14T07:19:48.695Z,3.00
2022-09-14T07:20:50.360Z,3.20
2022-09-14T07:21:54.151Z,2.90
2022-09-14T07:22:55.927Z,3.40
2022-09-14T07:23:58.061Z,3.20
2022-09-14T07:25:00.151Z,3.30
2022-09-14T07:26:05.211Z,3.60
2022-09-14T07:27:06.990Z,3.20
2022-09-14T07:28:08.752Z,3.70
2022-09-14T07:29:18.599Z,3.30
2022-09-14T07:30:20.703Z,3.20
2022-09-14T07:31:28.257Z,3.60
2022-09-14T07:32:31.027Z,3.70
2022-09-14T07:33:33.184Z,3.50
2022-09-14T07:34:34.911Z,3.20
2022-09-14T07:35:36.512Z,3.00
2022-09-14T07:36:39.021Z,2.90
2022-09-14T07:37:40.730Z,3.00
2022-09-14T07:38:52.026Z,2.90
2022-09-14T07:39:54.124Z,2.90
2022-09-14T07:40:59.388Z,2.70
2022-09-14T07:42:01.168Z,2.90
2022-09-14T07:43:02.895Z,3.00
2022-09-14T07:44:07.355Z,3.00
2022-09-14T07:45:10.657Z,3.00
2022-09-14T07:46:12.329Z,2.70
2022-09-14T07:47:13.965Z,3.10
2022-09-14T07:48:15.865Z,3.00
2022-09-14T07:49:17.896Z,2.70
2022-09-14T07:50:19.430Z,2.60
2022-09-14T07:51:21.656Z,2.60
2022-09-14T07:52:23.428Z,2.50
2022-09-14T07:53:25.077Z,2.50
2022-09-14T07:54:26.680Z,2.60
2022-09-14T07:55:28.274Z,2.40
2022-09-14T07:56:29.869Z,2.50
2022-09-14T07:57:52.539Z,2.70
2022-09-14T07:59:07.093Z,2.80
2022-09-14T08:00:18.556Z,2.10
2022-09-14T08:01:20.382Z,1.80
2022-09-14T08:02:25.014Z,1.70
2022-09-14T08:03:28.424Z,2.80
2022-09-14T08:04:30.084Z,2.30
2022-09-14T08:05:31.902Z,1.80
2022-09-14T08:06:34.250Z,1.90
2022-09-14T08:07:35.811Z,1.80
2022-09-14T08:08:39.936Z,1.90
2022-09-14T08:09:41.590Z,1.90
2022-09-14T08:10:46.022Z,2.00
2022-09-14T08:11:47.779Z,1.90
2022-09-14T08:12:51.394Z,1.80
2022-09-14T08:13:59.003Z,1.90
2022-09-14T08:15:01.737Z,1.80
2022-09-14T08:16:04.458Z,1.90
2022-09-14T08:17:06.129Z,1.90
2022-09-14T08:18:07.932Z,1.90
2022-09-14T08:19:16.557Z,2.10
2022-09-14T08:20:18.202Z,2.10
2022-09-14T08:21:20.029Z,2.10
2022-09-14T08:22:21.892Z,2.20
2022-09-14T08:23:24.814Z,2.10
2022-09-14T08:24:26.674Z,2.20
2022-09-14T08:25:28.317Z,2.30
2022-09-14T08:26:30.935Z,2.10
2022-09-14T08:27:32.856Z,2.20
2022-09-14T08:28:35.833Z,2.10
2022-09-14T08:29:39.185Z,2.30
2022-09-14T08:30:41.111Z,2.10
2022-09-14T08:31:44.927Z,2.00
2022-09-14T08:32:46.673Z,1.90
2022-09-14T08:33:54.867Z,2.30
2022-09-14T08:34:57.195Z,2.20
2022-09-14T08:35:59.001Z,2.00
2022-09-14T08:37:01.170Z,1.90
2022-09-14T08:38:03.201Z,1.90
2022-09-14T08:39:08.839Z,1.80
2022-09-14T08:40:12.892Z,1.80
2022-09-14T08:41:29.760Z,2.00
2022-09-14T08:42:31.995Z,2.20
2022-09-14T08:43:33.726Z,1.70
2022-09-14T08:44:46.815Z,2.10
2022-09-14T08:45:50.179Z,1.70
2022-09-14T08:47:29.004Z,1.60
2022-09-14T08:48:37.364Z,2.00
2022-09-14T08:49:54.370Z,1.80
2022-09-14T08:50:56.375Z,1.50
2022-09-14T08:52:00.271Z,1.90
2022-09-14T08:53:01.945Z,2.00
2022-09-14T08:54:03.590Z,1.70
2022-09-14T08:55:23.512Z,1.60
2022-09-14T08:56:31.720Z,1.70
2022-09-14T08:57:45.286Z,1.70
2022-09-14T08:58:59.808Z,1.80
2022-09-14T09:00:12.974Z,1.80
2022-09-14T09:01:46.718Z,2.00
2022-09-14T09:03:26.220Z,1.80
2022-09-14T09:04:33.745Z,1.90
2022-09-14T09:05:56.702Z,2.40
2022-09-14T09:07:19.599Z,2.40
2022-09-14T09:08:30.869Z,2.80
2022-09-14T09:09:59.164Z,2.50
2022-09-14T09:11:05.064Z,3.20
2022-09-14T09:12:12.361Z,2.30
2022-09-14T09:13:23.489Z,2.50
2022-09-14T09:15:44.560Z,2.70
2022-09-14T09:16:50.926Z,2.80
2022-09-14T09:18:04.616Z,3.00
2022-09-14T09:19:13.663Z,2.80
2022-09-14T09:20:23.017Z,3.30
2022-09-14T09:21:44.997Z,3.50
2022-09-14T09:23:12.309Z,3.90
2022-09-14T09:24:16.440Z,3.90
2022-09-14T09:25:35.162Z,4.30
2022-09-14T09:26:38.396Z,4.70
2022-09-14T09:27:40.087Z,4.50
2022-09-14T09:28:51.610Z,4.70
2022-09-14T09:29:53.446Z,4.40
2022-09-14T09:30:59.218Z,4.50
2022-09-14T09:32:03.236Z,4.60
2022-09-14T09:33:05.230Z,4.40
2022-09-14T09:34:07.260Z,4.40
2022-09-14T09:35:15.179Z,4.00
2022-09-14T09:36:17.890Z,3.60
2022-09-14T09:37:23.103Z,3.70
2022-09-14T09:38:28.995Z,3.50
2022-09-14T09:39:38.011Z,3.20
2022-09-14T09:40:44.471Z,2.90
2022-09-14T09:41:50.544Z,2.70
2022-09-14T09:43:05.836Z,3.20
2022-09-14T09:44:09.870Z,2.70
2022-09-14T09:45:11.660Z,2.70
2022-09-14T09:46:14.150Z,2.60
2022-09-14T09:47:25.447Z,2.90
2022-09-14T09:48:41.236Z,2.50
2022-09-14T09:49:44.214Z,2.80
2022-09-14T09:51:03.555Z,2.50
2022-09-14T09:52:09.626Z,2.40
2022-09-14T09:53:16.025Z,2.50
2022-09-14T09:55:06.192Z,2.50
2022-09-14T09:56:18.796Z,2.40
2022-09-14T09:57:30.076Z,2.30
2022-09-14T09:58:39.131Z,2.40
2022-09-14T09:59:46.736Z,2.50
2022-09-14T10:00:59.601Z,2.30
2022-09-14T10:02:21.533Z,2.50
2022-09-14T10:03:43.335Z,2.40
2022-09-14T10:04:58.906Z,2.30
2022-09-14T10:06:04.771Z,2.00
2022-09-14T10:07:21.748Z,2.30
2022-09-14T10:08:26.693Z,2.20
2022-09-14T10:09:29.971Z,2.00
2022-09-14T10:10:36.101Z,2.10
2022-09-14T10:11:39.585Z,2.20
2022-09-14T10:12:51.934Z,2.20
2022-09-14T10:13:55.323Z,2.00
2022-09-14T10:15:22.283Z,1.90
2022-09-14T10:41:36.350Z,1.70
2022-09-14T10:42:50.097Z,1.90
2022-09-14T10:43:59.253Z,1.80
2022-09-14T10:45:35.530Z,1.80
2022-09-14T10:46:54.706Z,1.80
2022-09-14T10:48:26.264Z,2.00
2022-09-14T10:49:33.821Z,2.10
2022-09-14T10:50:55.104Z,2.40
2022-09-14T10:52:27.082Z,2.00
2022-09-14T10:53:36.700Z,2.00
2022-09-14T10:55:03.401Z,2.50
2022-09-14T10:56:16.178Z,2.10
2022-09-14T10:57:45.921Z,2.10
2022-09-14T10:58:55.130Z,2.60
2022-09-14T11:00:19.823Z,2.10
2022-09-14T11:01:53.574Z,2.40
2022-09-14T11:03:29.251Z,2.10
2022-09-14T11:04:54.639Z,2.80
2022-09-14T11:06:07.968Z,2.20
2022-09-14T11:07:53.215Z,2.20
2022-09-14T11:09:01.929Z,2.40
2022-09-14T11:10:11.058Z,2.70
2022-09-14T11:11:30.532Z,2.70
2022-09-14T11:13:11.615Z,2.60
2022-09-14T11:14:29.813Z,2.40
2022-09-14T11:15:46.900Z,2.50
2022-09-14T11:17:28.035Z,2.50
2022-09-14T11:18:53.656Z,2.50
2022-09-14T11:20:43.690Z,2.80
2022-09-14T11:21:49.594Z,2.20
2022-09-14T11:22:55.654Z,2.70
2022-09-14T11:24:02.645Z,2.70
2022-09-14T11:25:18.160Z,2.70
2022-09-14T11:26:31.779Z,2.60
2022-09-14T11:27:55.177Z,2.80
2022-09-14T11:29:13.004Z,2.80
2022-09-14T11:30:59.037Z,2.60
2022-09-14T11:32:27.506Z,2.90
2022-09-14T11:33:44.367Z,3.00
2022-09-14T11:35:05.754Z,3.20
2022-09-14T11:36:23.085Z,2.60
2022-09-14T11:37:43.348Z,3.20
2022-09-14T11:39:06.542Z,3.10
2022-09-14T11:40:35.406Z,3.10
2022-09-14T11:41:46.138Z,2.80
2022-09-14T11:43:14.048Z,2.80
2022-09-14T11:44:30.477Z,3.00
2022-09-14T11:45:41.598Z,2.90
2022-09-14T11:46:49.778Z,2.80
2022-09-14T11:48:41.902Z,3.00
2022-09-14T11:49:58.910Z,2.70
2022-09-14T11:51:27.944Z,2.70
2022-09-14T11:52:33.551Z,2.70
2022-09-14T11:53:36.975Z,2.50
2022-09-14T11:54:46.076Z,2.60
2022-09-14T11:55:51.251Z,2.90
2022-09-14T11:57:05.056Z,2.70
2022-09-14T11:58:20.365Z,2.80
2022-09-14T11:59:41.789Z,2.40
2022-09-14T12:01:02.441Z,2.50
2022-09-14T12:02:24.161Z,2.40
2022-09-14T12:04:00.127Z,2.30
2022-09-14T12:05:10.326Z,2.60
2022-09-14T12:06:29.449Z,2.40
2022-09-14T12:07:47.562Z,2.70
2022-09-14T12:08:50.963Z,2.60
2022-09-14T12:09:54.350Z,2.30
2022-09-14T12:11:09.415Z,2.40
2022-09-14T12:12:30.912Z,2.50
2022-09-14T12:13:34.737Z,2.50
2022-09-14T12:14:40.828Z,2.50
2022-09-14T12:15:45.276Z,2.50
2022-09-14T12:17:38.881Z,2.50
2022-09-14T12:19:49.685Z,2.60
2022-09-14T12:21:27.758Z,2.50
2022-09-14T12:22:38.148Z,2.30
2022-09-14T12:23:44.009Z,2.60
2022-09-14T12:25:12.972Z,2.40
2022-09-14T12:26:16.140Z,2.10
2022-09-14T12:27:23.346Z,2.50
2022-09-14T12:28:35.171Z,2.30
2022-09-14T12:29:38.326Z,2.30
2022-09-14T12:31:04.564Z,2.20
2022-09-14T12:32:26.853Z,2.40
2022-09-14T12:33:32.922Z,2.10
2022-09-14T12:34:36.196Z,2.40
2022-09-14T12:35:39.535Z,2.50
2022-09-14T12:36:42.682Z,2.30
2022-09-14T12:37:46.009Z,2.10
2022-09-14T12:38:55.501Z,1.90
2022-09-14T12:40:23.483Z,2.10
2022-09-14T12:41:26.789Z,2.40
2022-09-14T12:42:32.423Z,2.10
2022-09-14T12:43:35.913Z,2.00
2022-09-14T12:44:43.073Z,2.10
2022-09-14T12:46:01.525Z,2.20
2022-09-14T12:47:30.049Z,2.00
2022-09-14T12:48:48.850Z,1.80
2022-09-14T12:49:54.716Z,2.30
2022-09-14T12:50:57.977Z,2.20
2022-09-14T12:52:11.570Z,2.10
2022-09-14T12:53:24.995Z,2.40
2022-09-14T12:54:31.067Z,2.40
2022-09-14T12:56:01.235Z,2.10
2022-09-14T12:57:26.146Z,2.00
2022-09-14T12:58:44.321Z,2.30
2022-09-14T13:00:02.398Z,2.00
2022-09-14T13:01:29.552Z,1.90
2022-09-14T13:02:47.698Z,2.00
2022-09-14T13:03:54.187Z,2.10
2022-09-14T13:04:59.422Z,1.90
2022-09-14T13:06:03.343Z,2.10
2022-09-14T13:07:16.090Z,1.80
2022-09-14T13:08:23.880Z,1.80
2022-09-14T13:09:30.768Z,2.40
2022-09-14T13:10:44.396Z,2.00
2022-09-14T13:11:54.369Z,2.10
2022-09-14T13:13:00.514Z,2.30
2022-09-14T13:14:04.120Z,1.90
2022-09-14T13:15:39.649Z,1.90
2022-09-14T13:16:49.794Z,2.40
2022-09-14T13:18:19.296Z,2.00
2022-09-14T13:19:25.819Z,2.10
2022-09-14T13:20:34.686Z,2.10
2022-09-14T13:21:47.026Z,2.10
2022-09-14T13:22:50.231Z,1.90
2022-09-14T13:23:53.397Z,1.90
2022-09-14T13:24:56.714Z,1.90
2022-09-14T13:26:00.640Z,2.20
2022-09-14T13:27:06.216Z,2.10
2022-09-14T13:28:15.849Z,2.10
2022-09-14T13:29:19.673Z,2.20
2022-09-14T13:30:26.152Z,2.10
2022-09-14T13:31:39.004Z,2.20
2022-09-14T13:32:45.752Z,2.20
2022-09-14T13:33:51.673Z,2.30
2022-09-14T13:34:55.383Z,2.50
2022-09-14T13:36:01.565Z,2.10
2022-09-14T13:37:05.786Z,2.40
2022-09-14T13:38:24.608Z,2.20
2022-09-14T13:39:40.394Z,2.50
2022-09-14T13:40:44.450Z,2.20
2022-09-14T13:41:48.361Z,2.20
2022-09-14T13:42:52.406Z,2.20
2022-09-14T13:43:58.816Z,2.40
2022-09-14T13:45:02.279Z,2.30
2022-09-14T13:46:11.669Z,2.40
2022-09-14T13:47:21.449Z,2.40
2022-09-14T13:48:25.128Z,2.00
2022-09-14T13:49:28.545Z,2.30
2022-09-14T13:50:31.745Z,2.30
2022-09-14T13:51:35.691Z,2.60
2022-09-14T13:53:01.011Z,2.40
2022-09-14T13:54:29.654Z,2.40
2022-09-14T13:55:35.563Z,2.20
2022-09-14T13:56:39.324Z,2.50
2022-09-14T13:58:06.922Z,2.20
2022-09-14T13:59:12.722Z,2.40
2022-09-14T14:00:20.443Z,2.50
2022-09-14T14:01:28.405Z,2.30
2022-09-14T14:02:34.279Z,2.60
2022-09-14T14:03:41.870Z,2.50
2022-09-14T14:04:49.072Z,2.50
2022-09-14T14:05:52.948Z,2.70
2022-09-14T14:07:04.432Z,2.80
2022-09-14T14:08:27.689Z,2.30
2022-09-14T14:09:59.980Z,2.40
2022-09-14T14:11:08.574Z,2.50
2022-09-14T14:12:27.344Z,2.50
2022-09-14T14:13:36.149Z,2.40
2022-09-14T14:14:39.613Z,2.70
2022-09-14T14:15:43.673Z,2.70
2022-09-14T14:17:25.623Z,2.80
2022-09-14T14:18:37.980Z,2.70
2022-09-14T14:19:41.249Z,2.60
2022-09-14T14:20:44.484Z,2.60
2022-09-14T14:21:49.307Z,2.40
2022-09-14T14:23:13.535Z,2.40
2022-09-14T14:24:24.856Z,2.70
2022-09-14T14:25:33.630Z,2.30
2022-09-14T14:26:37.086Z,2.30
2022-09-14T14:27:48.138Z,2.30
2022-09-14T14:29:54.879Z,2.30
2022-09-14T14:31:04.029Z,2.00
2022-09-14T14:32:11.070Z,2.30
2022-09-14T14:33:18.982Z,2.30
2022-09-14T14:34:25.965Z,2.30
2022-09-14T14:35:31.505Z,2.50
2022-09-14T14:36:35.279Z,2.50
2022-09-14T14:37:38.366Z,2.40
2022-09-14T14:38:48.243Z,2.40
2022-09-14T14:39:51.551Z,2.50
2022-09-14T14:40:55.862Z,2.30
2022-09-14T14:42:09.977Z,2.60
2022-09-14T14:43:22.141Z,2.30
2022-09-14T14:44:28.448Z,2.30
2022-09-14T14:45:39.567Z,2.40
2022-09-14T14:46:42.789Z,2.40
2022-09-14T14:47:47.476Z,2.40
2022-09-14T14:48:50.754Z,2.30
2022-09-14T14:49:54.272Z,2.50
2022-09-14T14:50:57.647Z,2.80
2022-09-14T14:52:02.976Z,2.60
2022-09-14T14:53:06.572Z,2.40
2022-09-14T14:54:13.274Z,2.50
2022-09-14T14:55:16.353Z,2.50
2022-09-14T14:56:19.921Z,2.40
2022-09-14T14:57:28.322Z,2.60
2022-09-14T14:58:36.432Z,2.60
2022-09-14T15:00:10.111Z,2.90
2022-09-14T15:01:23.712Z,2.50
2022-09-14T15:02:32.484Z,2.40
2022-09-14T15:03:40.586Z,2.50
2022-09-14T15:04:44.550Z,2.40
2022-09-14T15:05:50.450Z,2.40
2022-09-14T15:06:54.916Z,2.50
2022-09-14T15:07:59.994Z,2.60
2022-09-14T15:09:11.213Z,2.60
2022-09-14T15:10:18.192Z,2.50
2022-09-14T15:11:24.480Z,2.50
2022-09-14T15:12:28.837Z,2.60
2022-09-14T15:13:31.951Z,2.50
2022-09-14T15:14:35.259Z,2.40
2022-09-14T15:15:41.669Z,2.50
2022-09-14T15:16:45.542Z,2.30
2022-09-14T15:17:48.799Z,2.60
2022-09-14T15:18:52.302Z,2.70
2022-09-14T15:19:55.380Z,2.60
2022-09-14T15:20:58.447Z,2.70
2022-09-14T15:22:01.969Z,2.90
2022-09-14T15:23:06.035Z,2.50
2022-09-14T15:24:10.864Z,2.70
2022-09-14T15:25:15.618Z,2.70
2022-09-14T15:26:19.090Z,2.60
2022-09-14T15:27:22.501Z,2.60
2022-09-14T15:28:25.824Z,2.60
2022-09-14T15:29:29.284Z,2.30
2022-09-14T15:30:32.472Z,2.40
2022-09-14T15:31:35.713Z,2.70
2022-09-14T15:32:40.190Z,2.70
2022-09-14T15:33:44.921Z,2.70